• Join FlightAware (Why Join?)
  • Login
  • US Flag 
10:04AM EDT


 

Airport Tracker/Info


-or-


 

Live Flight TrackerFlight Track Log ✈ FLG3306 ✈ 28-Apr-2013 ✈ KDFW - KMSP

Flight Track Log - Related Links

Times and Time Zones

All times are in EDT time to prevent confusion due to time zone crossing. See the FLG3306 flight status page for this flight to view local times or setup timezone preferences in your user account.

Time Position Orientation Groundspeed Altitude Reporting Facility
EDT Latitude Longitude Course Direction KTS MPH feet Rate Location/Type
09:12AM 32.8833 -97.0500 180° South 194 223 1,400  Level Dallas / Fort Worth TRACON
09:13AM 32.8333 -97.0500 180° South 195 224 2,900 1,800 Climbing Dallas / Fort Worth TRACON
09:14AM 32.7833 -97.0833 209° Southwest 245 282 4,700 2,220 Climbing Dallas / Fort Worth TRACON
09:15AM 32.7667 -97.1500 253° West 273 314 6,900 2,460 Climbing Dallas / Fort Worth TRACON
09:17AM 32.8269 -97.2700 301° West 312 359 10,900 1,800 Climbing Fort Worth Center
09:18AM 32.9231 -97.2700 360° North 289 333 11,900 1,440 Climbing Fort Worth Center
09:19AM 33.0211 -97.2647 North 314 361 13,800 1,980 Climbing Fort Worth Center
09:20AM 33.1214 -97.2250 18° North 353 406 15,900 1,680 Climbing Fort Worth Center
09:21AM 33.2256 -97.1900 16° North 374 430 17,200 1,380 Climbing Fort Worth Center
09:22AM 33.3236 -97.1575 15° North 400 460 18,700 1,560 Climbing Fort Worth Center
09:23AM 33.4447 -97.1122 17° North 405 466 20,400 1,440 Climbing Fort Worth Center
09:24AM 33.5489 -97.0969 North 405 466 21,600 1,200 Climbing Fort Worth Center
09:25AM 33.6783 -97.0814 North 410 472 22,900 1,260 Climbing Fort Worth Center
09:26AM 33.8014 -97.0636 North 429 494 24,200 1,200 Climbing Fort Worth Center
09:27AM 33.9203 -97.0506 North 429 494 25,300 960 Climbing Fort Worth Center
09:28AM 34.0433 -97.0350 North 435 501 26,200 960 Climbing Fort Worth Center
09:29AM 34.1497 -97.0244 North 435 501 27,300 1,080 Climbing Fort Worth Center
09:30AM 34.2750 -97.0064 North 435 501 28,400 1,320 Climbing Fort Worth Center
09:31AM 34.4083 -96.9706 13° North 445 512 30,000 1,320 Climbing Fort Worth Center
09:32AM 34.5186 -96.9044 26° Northeast 440 506 31,100 1,140 Climbing Fort Worth Center
09:33AM 34.6269 -96.8306 29° Northeast 440 506 32,300 1,140 Climbing Fort Worth Center
09:34AM 34.7350 -96.7592 28° Northeast 435 501 33,400 900 Climbing Fort Worth Center
09:35AM 34.8472 -96.6875 28° Northeast 440 506 34,200 780 Climbing Fort Worth Center
09:36AM 34.9575 -96.6156 28° Northeast 440 506 35,000 360 Climbing Fort Worth Center
09:37AM 35.0694 -96.5408 29° Northeast 445 512 35,000  Level Fort Worth Center
09:38AM 35.1858 -96.4636 28° Northeast 457 526 35,000  Level Fort Worth Center
09:39AM 35.3039 -96.3858 28° Northeast 473 544 35,000  Level Fort Worth Center
09:40AM 35.4222 -96.3081 28° Northeast 473 544 35,000  Level Fort Worth Center
09:42AM 35.6553 -96.1522 29° Northeast 478 550 35,000  Level Kansas City Center
09:43AM 35.7844 -96.0656 29° Northeast 476 548 35,000  Level Kansas City Center
09:44AM 35.9003 -95.9883 28° Northeast 473 544 35,000  Level Kansas City Center
09:45AM 36.0144 -95.9119 28° Northeast 467 537 35,000  Level Kansas City Center
09:46AM 36.1294 -95.8333 29° Northeast 469 540 35,000  Level Kansas City Center
09:47AM 36.2486 -95.7708 23° Northeast 461 531 35,000  Level Kansas City Center
09:48AM 36.3783 -95.7283 15° North 460 529 35,000  Level Kansas City Center
09:49AM 36.5008 -95.6892 14° North 457 526 35,000  Level Kansas City Center
09:50AM 36.6250 -95.6475 15° North 457 526 35,000  Level Kansas City Center
09:51AM 36.7497 -95.6064 15° North 457 526 35,000  Level Kansas City Center
09:52AM 36.8983 -95.5567 15° North 457 526 35,000  Level Kansas City Center
09:53AM 37.0217 -95.5147 15° North 457 526 35,000  Level Kansas City Center
09:54AM 37.1453 -95.4731 15° North 457 526 35,000  Level Kansas City Center
09:55AM 37.2664 -95.4322 15° North 452 520 35,000  Level Kansas City Center
09:56AM 37.3878 -95.3906 15° North 450 518 35,000  Level Kansas City Center
09:57AM 37.5069 -95.3506 15° North 444 511 35,000  Level Kansas City Center
09:58AM 37.6269 -95.3106 15° North 444 511 35,000  Level Kansas City Center
09:59AM 37.7489 -95.2700 15° North 449 517 35,000  Level Kansas City Center
10:00AM 37.8714 -95.2269 16° North 454 522 35,000  Level Kansas City Center
10:01AM 38.0103 -95.1836 14° North 446 513 35,000  Level Kansas City Center
10:02AM 38.1233 -95.1447 15° North 440 506 35,000 480 Level Kansas City Center
10:03AM 38.2381 -95.1039 16° North 445 512 36,100 960 Climbing Kansas City Center
10:04AM 38.3681 -95.0575 16° North 438 504 37,000 420 Climbing Kansas City Center
10:05AM 38.4811 -95.0181 15° North 441 507 37,000  Level Kansas City Center
10:06AM 38.6172 -94.9725 15° North 453 521 37,000  Level Kansas City Center
10:07AM 38.7342 -94.9308 16° North 458 527 37,000  Level Kansas City Center
10:08AM 38.8694 -94.8828 15° North 454 522 37,000  Level Kansas City Center
10:09AM 38.9847 -94.8425 15° North 451 519 37,000  Level Kansas City Center
10:10AM 39.0989 -94.8017 16° North 449 517 37,000  Level Kansas City Center
10:11AM 39.2328 -94.7533 16° North 449 517 37,000  Level Kansas City Center
10:12AM 39.3456 -94.7069 18° North 449 517 37,000  Level Kansas City Center
10:13AM 39.4769 -94.6433 20° North 454 522 37,000  Level Kansas City Center
10:15AM 39.5858 -94.5897 21° North 441 507 37,000  Level Kansas City Center
10:16AM 39.7139 -94.5264 21° North 441 507 37,000  Level Kansas City Center
10:17AM 39.8242 -94.4717 21° North 442 509 37,000  Level Kansas City Center
10:18AM 39.9347 -94.4169 21° North 444 511 37,000  Level Kansas City Center
10:19AM 40.0628 -94.3519 21° North 443 510 37,000  Level Kansas City Center
10:20AM 40.1736 -94.2992 20° North 444 511 37,000  Level Kansas City Center
10:21AM 40.3011 -94.2322 22° Northeast 441 507 37,000  Level Kansas City Center
10:22AM 40.3997 -94.1806 22° Northeast 440 506 37,000  Level Kansas City Center
10:23AM 40.5139 -94.1231 21° North 442 509 37,000  Level Minneapolis Center
10:24AM 40.6283 -94.0650 21° North 442 509 37,000  Level Minneapolis Center
10:25AM 40.7444 -94.0064 21° North 444 511 37,000  Level Minneapolis Center
10:26AM 40.8644 -93.9886 North 439 505 37,000  Level Minneapolis Center
10:27AM 40.9833 -93.9878 360° North 432 497 37,000  Level Minneapolis Center
10:28AM 41.1031 -93.9867 360° North 431 496 37,000  Level Minneapolis Center
10:29AM 41.2192 -93.9853 North 425 489 37,000  Level Minneapolis Center
10:30AM 41.3325 -93.9856 360° North 416 479 37,000  Level Minneapolis Center
10:31AM 41.4681 -93.9878 359° North 411 473 37,000  Level Minneapolis Center
10:32AM 41.5819 -93.9875 360° North 410 472 37,000  Level Minneapolis Center
10:33AM 41.6947 -93.9861 North 409 471 37,000  Level Minneapolis Center
10:34AM 41.7858 -93.9853 360° North 410 472 37,000  Level Minneapolis Center
10:35AM 41.9222 -93.9664 North 417 480 37,000 -300 Level Minneapolis Center
10:36AM 42.0367 -93.9319 13° North 421 484 36,500 -840 Descending Minneapolis Center
10:37AM 42.1750 -93.8900 13° North 424 488 35,300 -1,080 Descending Minneapolis Center
10:38AM 42.2883 -93.8561 12° North 431 496 34,300 -1,020 Descending Minneapolis Center
10:39AM 42.4072 -93.8211 12° North 437 503 33,300 -660 Descending Minneapolis Center
10:40AM 42.5278 -93.7850 12° North 442 509 33,000 -180 Descending Minneapolis Center
10:41AM 42.6481 -93.7486 13° North 444 511 33,000  Level Minneapolis Center
10:42AM 42.7669 -93.7106 13° North 443 510 33,000  Level Minneapolis Center
10:43AM 42.9128 -93.6672 12° North 449 517 33,000 -180 Level Minneapolis Center
10:44AM 43.0344 -93.6292 13° North 450 518 32,700 -720 Descending Minneapolis Center
10:45AM 43.1539 -93.5925 13° North 446 513 31,600 -1,080 Descending Minneapolis Center
10:46AM 43.2706 -93.5572 12° North 436 502 30,500 -1,620 Descending Minneapolis Center
10:47AM 43.3889 -93.5433 North 431 496 28,400 -2,280 Descending Minneapolis Center
10:48AM 43.5014 -93.5336 North 416 479 25,900 -2,520 Descending Minneapolis Center
10:49AM 43.6206 -93.5192 North 400 460 23,300 -2,520 Descending Minneapolis Center
10:50AM 43.7286 -93.5092 North 393 452 20,800 -2,340 Descending Minneapolis Center
10:51AM 43.8361 -93.5003 North 390 449 18,600 -2,400 Descending Minneapolis Center
10:52AM 43.9578 -93.4892 North 362 417 16,000 -2,340 Descending Minneapolis Center
10:53AM 44.0533 -93.4789 North 345 397 13,800 -2,100 Descending Minneapolis Center
10:55AM 44.1636 -93.4686 North 332 382 11,300 -1,260 Descending Minneapolis Center
10:56AM 44.2553 -93.4467 10° North 336 387 11,000 -180 Descending Minneapolis Center
10:57AM 44.3392 -93.3869 27° Northeast 340 391 11,000  Level Minneapolis Center
10:58AM 44.4239 -93.3275 27° Northeast 343 395 11,000  Level Minneapolis Center
10:59AM 44.5083 -93.2683 27° Northeast 343 395 11,000 -240 Level Minneapolis Center
11:00AM 44.6089 -93.1983 26° Northeast 340 391 10,600 -1,020 Descending Minneapolis Center
11:01AM 44.6867 -93.2169 350° North 288 331 9,000 -1,320 Descending Minneapolis Center
11:02AM 44.7633 -93.2656 336° Northwest 285 328 8,000 -780 Descending Minneapolis Center
11:03AM 44.8308 -93.3231 329° Northwest 285 328 7,500 -1,080 Descending Minneapolis Center
11:04AM 44.8736 -93.4122 304° West 277 319 5,900 -1,260 Descending Minneapolis Center
11:05AM 44.9233 -93.4731 319° Northwest 272 313 5,000 -1,020 Descending Minneapolis Center
11:06AM 44.9475 -93.3972 66° East 228 262 3,800 -1,200 Descending Minneapolis Center